Tiempo atmosférico en la estación meteorológica de Zumarraga, Gipuzkoa (420 m.)



Fecha
DESCASC
Temp. máxima en grados centígrados (hora)
DESCASC
Temp. mínima en grados centígrados (hora)
DESCASC
Temp. media en grados centígrados
DESCASC
Racha de viento máxima en m/sg (hora)
DESCASC
Velocidad máxima media en intervalos de 10 minutos(hora)
DESCASC
Precipitaciones diarias en mm
DESCASC
Precipitaciones de 00:00 a 06:00 en mm
DESCASC
Precipitaciones de 06:00 a 12:00 en mm
DESCASC
Precipitaciones de 12:00 a 18:00 en mm
DESCASC
Precipitaciones de 18:00 a 24:00 en mm
DESCASC
23-06-2019 30.7 (16:40) 16.5 (23:59) 23.6 8.06 (17:30) 4.17 (16:50) 0 0 0 0 0
22-06-2019 27 (18:20) 7.6 (05:00) 17.3 5.56 (16:00) 2.22 (14:10) 0 0 0 0 0
21-06-2019 17.9 (17:20) 9.9 (23:59) 13.9 6.11 (08:20) 3.06 (17:30) 5.9 2.3 3.6 0 0
20-06-2019 15.9 (18:30) 12.6 (00:00) 14.3 5.83 (18:50) 1.67 (02:20) 0.6 0 0.2 0 0.4
19-06-2019 24.3 (12:40) 12.3 (00:00) 18.3 13.33 (14:20) 4.72 (14:40) 0 0 0 0 0
18-06-2019 32.3 (17:10) 12.9 (00:00) 22.6 10.28 (18:30) 5.83 (18:50) 0 0 0 0 0
17-06-2019 29.8 (17:40) 11.9 (00:00) 20.8 7.78 (22:00) 3.89 (22:00) 0 0 0 0 0
16-06-2019 24.9 (16:40) 6.4 (00:00) 15.6 6.67 (16:40) 3.89 (17:30) 0 0 0 0 0
15-06-2019 18.7 (14:30) 8.1 (00:00) 13.4 7.22 (15:40) 3.33 (19:50) 0 0 0 0 0
14-06-2019 15.1 (13:50) 9.1 (00:00) 12.1 5.56 (14:40) 2.78 (14:50) 0.3 0.1 0 0.1 0.1
13-06-2019 20.5 (13:50) 5 (00:00) 12.8 7.5 (16:40) 3.89 (17:20) 0 0 0 0 0
12-06-2019 16.9 (15:00) 4.2 (00:00) 10.5 6.94 (16:40) 3.06 (16:40) 0 0 0 0 0
11-06-2019 11.4 (16:00) 7.2 (00:00) 9.3 15.56 (16:00) 6.39 (16:10) 11.7 3 1.7 5.5 1.5
10-06-2019 13.5 (16:40) 8.5 (00:00) 11 7.5 (01:30) 3.61 (13:50) 0.2 0.1 0 0 0.1
09-06-2019 18.5 (13:30) 10.3 (00:00) 14.4 7.78 (22:00) 4.17 (23:00) 1 0 0 0 1
08-06-2019 18.1 (15:50) 4.9 (00:00) 11.5 7.5 (14:10) 3.89 (17:50) 0 0 0 0 0
07-06-2019 19 (00:00) 7.1 (00:00) 13 17.5 (08:00) 5 (03:40) 1.8 1.6 0 0.2 0
06-06-2019 22.6 (18:30) 5.9 (00:00) 14.3 12.78 (17:50) 4.17 (17:50) 0 0 0 0 0
05-06-2019 13.2 (17:30) 8.2 (00:00) 10.7 10 (12:30) 5.28 (12:10) 22.7 2.2 18.2 2.3 0
04-06-2019 26.7 (14:40) 10.5 (00:00) 18.6 8.89 (14:50) 5 (15:20) 0.4 0 0 0 0.4
03-06-2019 24.3 (16:10) 11.6 (00:00) 17.9 5.28 (09:20) 2.78 (16:40) 0 0 0 0 0
02-06-2019 29.6 (16:00) 12.8 (00:00) 21.2 7.5 (17:20) 3.89 (17:30) 0 0 0 0 0
01-06-2019 29.7 (17:20) 13.2 (00:00) 21.5 6.67 (12:00) 3.06 (11:40) 0 0 0 0 0
31-05-2019 27.3 (15:40) 9.6 (00:00) 18.4 5.83 (17:20) 3.61 (17:50) 0 0 0 0 0
30-05-2019 24.2 (17:00) 5.2 (00:00) 14.7 6.39 (18:30) 3.89 (20:20) 0 0 0 0 0
29-05-2019 16.2 (18:10) 8.1 (00:00) 12.2 9.17 (00:20) 5 (00:20) 3 1.4 1.6 0 0
28-05-2019 12.6 (17:20) 8.2 (00:00) 10.4 11.67 (18:20) 6.39 (21:00) 3.7 0 0.2 3 0.5

Gráficas

Temp. máximas Temp. mínimas Temp. medias Precipitaciones Rachas de viento máximas Velocidades máximas media en intervalos de 10 minutos

Datos horarios

Fecha y hora oficial Temperatura (ºC) Velocidad del viento (km/h) Dirección del viento Racha (km/h) Dirección de racha Precipitación (mm) Presión (hPa) Tendencia (hPa) Humedad (%)
2019-06-26 23:00:00 30.4 13 Este 30 Este 0 966 2.1 28
2019-06-26 22:00:00 31 10 Este 27 Este 0 965.1 1.6 28
2019-06-26 21:00:00 32.4 10 Este 32 Este 0 964.5 0.6 27
2019-06-26 20:00:00 33.5 13 Este 41 Sudeste 0 963.9 -0.5 26
2019-06-26 19:00:00 33.8 14 Este 37 Este 0 963.5 -1 27
2019-06-26 18:00:00 34 16 Este 43 Este 0 963.9 -1 26
2019-06-26 17:00:00 33.9 14 Este 46 Este 0 964.4 -1.1 27
2019-06-26 16:00:00 33.8 9 Este 36 Este 0 964.5 -1.5 27
2019-06-26 15:00:00 33 13 Este 40 Este 0 964.9 -1.3 28
2019-06-26 14:00:00 31.9 12 Este 30 Este 0 965.5 -1.2 30
2019-06-26 13:00:00 30.5 12 Este 40 Este 0 966 -0.6 33
2019-06-26 12:00:00 28.3 17 Este 71 Sudeste 0 966.2 -0.1 35
2019-06-26 11:00:00 27.8 13 Sudeste 33 Este 0 966.7 0.3 36
2019-06-26 10:00:00 26.4 4 Este 12 Sudeste 0 966.6 0.5 43
2019-06-26 09:00:00 23.9 2 Nordeste 7 Nordeste 0 966.3 0.4 55
2019-06-26 08:00:00 20.5 0 Calma 5 Noroeste 0 966.4 0.5 76
2019-06-26 07:00:00 16.7 0 Calma 12 Sudoeste 0 966.1 0.2 99
2019-06-26 06:00:00 16.2 3 Oeste 18 Oeste 0 965.9 -0.8 99
2019-06-26 05:00:00 16.7 9 Oeste 20 Oeste 0 965.9 -1.1 99
2019-06-26 04:00:00 17.6 0 Calma 3 Noroeste 0 965.9 -1.6 98
2019-06-26 03:00:00 17.7 0 Calma 4 Sudeste 0 966.7 -1 97
2019-06-26 02:00:00 17.7 0 Calma 5 Oeste 0 967 -0.5 94
2019-06-26 01:00:00 17.8 2 Oeste 14 Oeste 0 967.5 0.3 94
2019-06-26 00:00:00 18.3 2 Oeste 6 Oeste 0 967.7 0.7 94
2019-06-25 23:00:00 18.5 3 Noroeste 10 Noroeste 0 967.5 1.1 93
2019-06-25 22:00:00 18.1 6 Norte 17 Norte 0 967.2 0.9 93
2019-06-25 21:00:00 19 7 Norte 20 Norte 0 967 0.9 90
2019-06-25 20:00:00 21.6 5 Norte 17 Noroeste 0 966.4 0.3 78
2019-06-25 19:00:00 23.6 6 Norte 18 Noroeste 0 966.3 0.1 71
2019-06-25 18:00:00 24.4 9 Norte 23 Oeste 0 966.1 0 65
2019-06-25 17:00:00 26.3 12 Noroeste 23 Noroeste 0 966.1 -0.3 59
2019-06-25 16:00:00 26.5 9 Norte 19 Norte 0 966.2 -0.6 57
2019-06-25 15:00:00 26.8 7 Norte 16 Norte 0 966.1 -0.8 55
2019-06-25 14:00:00 25.9 2 Este 13 Sur 0 966.4 -0.4 55
2019-06-25 13:00:00 24.4 3 Nordeste 13 Este 0 966.8 -0.2 56
2019-06-25 12:00:00 21.2 2 Este 9 Este 0 966.9 -0.2 70
2019-06-25 11:00:00 20.3 5 Este 12 Este 0 966.8 -0.3 70
2019-06-25 10:00:00 18.1 5 Este 11 Este 0 967 0.1 81
2019-06-25 09:00:00 17.9 0 Calma 4 Nordeste 0 967.1 0.6 81
2019-06-25 08:00:00 14.7 0 Calma 0 Calma 0 967.1 0.9 99
2019-06-25 07:00:00 12.7 0 Calma 2 Oeste 0 966.9 0.3 99
2019-06-25 06:00:00 13 0 Calma 0 Calma 0 966.5 -0.5 99
2019-06-25 05:00:00 13 0 Calma 5 Sudoeste 0 966.2 -0.9 99
2019-06-25 04:00:00 13.1 0 Calma 3 Sudoeste 0 966.6 -0.5 99
2019-06-25 03:00:00 13.5 0 Calma 4 Sudoeste 0 967 -0.2 99
2019-06-25 02:00:00 14 0 Calma 6 Sudoeste 0 967.1 0.4 99
2019-06-25 01:00:00 14.6 0 Calma 4 Noroeste 0 967.1 1.1 97
2019-06-25 00:00:00 15.3 2 Oeste 8 Oeste 0 967.2 1.8 95
2019-06-24 23:00:00 15.6 5 Oeste 29 Oeste 0 966.7 2.6 94
2019-06-24 22:00:00 16 14 Oeste 27 Oeste 0 966 2.7 92
2019-06-24 21:00:00 16.6 13 Oeste 32 Noroeste 0 965.4 2.5 91
2019-06-24 20:00:00 18 23 Oeste 40 Oeste 0 964.1 1.4 85
2019-06-24 19:00:00 22.9 16 Oeste 39 Oeste 0 963.3 0.7 65
2019-06-24 18:00:00 23 9 Oeste 34 Noroeste 0 962.9 -0.3 59
2019-06-24 17:00:00 24.6 10 Oeste 21 Oeste 0 962.7 -0.2 51
2019-06-24 16:00:00 27.2 5 Este 15 Este 0 962.6 -0.4 36
2019-06-24 15:00:00 26.9 0 Calma 17 Este 0 963.2 -0.1 36
2019-06-24 14:00:00 26.2 0 Calma 14 Este 0 962.9 -0.7 38
2019-06-24 13:00:00 25.7 7 Este 22 Este 0 963 -0.7 36
2019-06-24 12:00:00 25 7 Este 25 Este 0 963.3 -0.2 38
2019-06-24 11:00:00 23.4 7 Sudeste 25 Este 0 963.6 -0.3 42
2019-06-24 10:00:00 21.9 5 Este 14 Este 0 963.7 -0.4 55
2019-06-24 09:00:00 16.9 0 Calma 4 Norte 0 963.5 -0.3 91
2019-06-24 08:00:00 14.3 0 Calma 4 Este 0 963.9 0.1 99
2019-06-24 07:00:00 13.9 0 Calma 16 Noroeste 0 964.1 0.6 99
2019-06-24 06:00:00 14 14 Oeste 26 Oeste 0 963.8 0.2 99
2019-06-24 05:00:00 14.5 14 Oeste 28 Noroeste 0 963.8 0.3 97
2019-06-24 04:00:00 15.2 4 Oeste 14 Oeste 0 963.5 -0.3 96
2019-06-24 03:00:00 15.6 3 Oeste 10 Oeste 0 963.6 -0.8 95
2019-06-24 02:00:00 15.9 0 Calma 0 Calma 0 963.5 -0.8 94
2019-06-24 01:00:00 15.9 0 Calma 4 Sur 0 963.8 0 91
2019-06-24 00:00:00 16.5 0 Calma 6 Oeste 0 964.4 0.9 88
2019-06-23 23:00:00 17.2 2 Oeste 10 Noroeste 0 964.3 1 85
2019-06-23 22:00:00 18.5 4 Noroeste 15 Oeste 0 963.8 0.8 79
2019-06-23 21:00:00 20.1 2 Norte 9 Nordeste 0 963.5 0.8 67
2019-06-23 20:00:00 21.2 3 Norte 9 Nordeste 0 963.3 1.1 63
2019-06-23 19:00:00 21.3 5 Norte 20 Noroeste 0 963 0.9 59
2019-06-23 18:00:00 23.2 7 Noroeste 29 Noroeste 0 962.7 0.4 55
2019-06-23 17:00:00 26.9 13 Noroeste 28 Noroeste 0 962.2 -0.4 48
2019-06-23 16:00:00 29.6 4 Este 18 Este 0 962.1 -0.6 40
2019-06-23 15:00:00 28.9 0 Calma 15 Este 0 962.3 -0.7 43
2019-06-23 14:00:00 27.4 5 Sudeste 23 Sudeste 0 962.6 -0.4 45
2019-06-23 13:00:00 27 8 Este 22 Este 0 962.7 -0.2 46
2019-06-23 12:00:00 25.9 9 Sudeste 19 Sudeste 0 963 0.8 48
2019-06-23 11:00:00 24.5 4 Sudeste 17 Sudeste 0 963 1.1 53
2019-06-23 10:00:00 22.7 4 Este 10 Nordeste 0 962.9 1.3 58
2019-06-23 09:00:00 20.7 0 Calma 22 Sudeste 0 962.2 0.8 64
2019-06-23 08:00:00 20.6 5 Sudeste 21 Sur 0 961.9 1 61
2019-06-23 07:00:00 20.5 4 Este 15 Este 0 961.6 0.6 59
2019-06-23 06:00:00 21.2 4 Sudeste 22 Este 0 961.4 0.1 54
2019-06-23 05:00:00 21.3 3 Sudeste 26 Este 0 960.9 -1.1 51
2019-06-23 04:00:00 20.2 0 Calma 9 Noroeste 0 961 -1.4 56
2019-06-23 03:00:00 18.7 2 Este 11 Sudeste 0 961.3 -1.1 70
2019-06-23 02:00:00 17.6 0 Calma 2 Sudeste 0 962 -0.8 92
2019-06-23 01:00:00 18 0 Calma 0 Calma 0 962.4 0.2 91
2019-06-23 00:00:00 17.8 0 Calma 0 Calma 0 962.4 0.1 88
2019-06-22 23:00:00 19 0 Calma 4 Sudoeste 0 962.8 0.5 85
2019-06-22 22:00:00 19.9 0 Calma 6 Norte 0 962.2 -0.1 79
2019-06-22 21:00:00 22.8 0 Calma 8 Norte 0 962.3 -0.4 61
2019-06-22 20:00:00 24.8 0 Calma 8 Sudeste 0 962.3 -0.7 49
2019-06-22 19:00:00 25.7 3 Este 15 Nordeste 0 962.3 -1.5 40
2019-06-22 18:00:00 26.4 3 Sudeste 14 Este 0 962.7 -1.8 39
2019-06-22 17:00:00 26.2 4 Este 16 Este 0 963 -2.3 37
2019-06-22 16:00:00 25.7 6 Este 20 Este 0 963.8 -2 37
2019-06-22 15:00:00 24.2 8 Este 16 Nordeste 0 964.5 -2 43
2019-06-22 14:00:00 22.7 7 Este 14 Este 0 965.3 -1.6 46
2019-06-22 13:00:00 21.3 7 Este 15 Este 0 965.8 -1.5 52
2019-06-22 12:00:00 19 4 Este 12 Nordeste 0 966.5 -1 54
2019-06-22 11:00:00 15.4 4 Este 10 Este 0 966.9 -0.9 66
2019-06-22 10:00:00 11.4 3 Este 9 Este 0 967.3 -0.3 99
2019-06-22 09:00:00 9 0 Calma 8 Este 0 967.5 -0.5 99
2019-06-22 08:00:00 8.1 0 Calma 3 Nordeste 0 967.8 -0.6 99
2019-06-22 07:00:00 8.1 0 Calma 3 Este 0 967.6 -1.3 99
2019-06-22 06:00:00 7.9 0 Calma 3 Sudoeste 0 968 -1.6 99
2019-06-22 05:00:00 7.8 0 Calma 0 Calma 0 968.4 -1.6 99
2019-06-22 04:00:00 8 0 Calma 6 Sudoeste 0 968.9 -1.6 99
2019-06-22 03:00:00 8.1 0 Calma 5 Sudoeste 0 969.6 -1.3 99
2019-06-22 02:00:00 8.8 0 Calma 2 Sudoeste 0 970 -0.8 99
2019-06-22 01:00:00 9.3 0 Calma 0 Calma 0 970.5 0 99
2019-06-22 00:00:00 9.9 0 Calma 4 Sudoeste 0 970.9 0.7 95
2019-06-21 23:00:00 11.2 0 Calma 7 Norte 0 970.8 0.9 91
2019-06-21 22:00:00 12.4 2 Oeste 10 Noroeste 0 970.5 0.9 83
2019-06-21 21:00:00 14.3 4 Norte 15 Nordeste 0 970.2 0.6 73
2019-06-21 20:00:00 14.6 5 Norte 17 Norte 0 969.9 0.3 71
2019-06-21 19:00:00 16.8 4 Norte 19 Norte 0 969.6 -0.3 64
2019-06-21 18:00:00 17.6 8 Norte 22 Noroeste 0 969.6 -0.3 61
2019-06-21 17:00:00 17.4 6 Norte 20 Norte 0 969.6 -0.5 61
2019-06-21 16:00:00 17 6 Nordeste 22 Noroeste 0 969.9 -0.2 61
2019-06-21 15:00:00 16.2 3 Norte 15 Este 0 969.9 -0.3 65
2019-06-21 14:00:00 16.2 3 Norte 17 Este 0 970.1 0.3 69
2019-06-21 13:00:00 14.9 4 Noroeste 14 Noroeste 0 970.1 0.5 76
2019-06-21 12:00:00 13.5 5 Norte 14 Noroeste 0 970.2 1.1 84
2019-06-21 11:00:00 11.8 4 Oeste 14 Oeste 0 969.8 1.4 99
2019-06-21 10:00:00 11.5 2 Noroeste 8 Noroeste 0 969.6 1.4 99
2019-06-21 09:00:00 11.1 2 Oeste 22 Oeste 0.5 969.1 1.4 99
2019-06-21 08:00:00 10.8 0 Calma 21 Oeste 1.6 968.4 0.6 99
2019-06-21 07:00:00 10.8 8 Oeste 18 Oeste 1.5 968.2 0.4 99
2019-06-21 06:00:00 11.4 0 Calma 10 Noroeste 0.1 967.7 -0.5 99
2019-06-21 05:00:00 11.5 0 Calma 12 Noroeste 0.1 967.8 -0.3 99
2019-06-21 04:00:00 11.9 2 Norte 8 Noroeste 0.2 967.8 -0.6 99
2019-06-21 03:00:00 12 0 Calma 6 Norte 0.3 968.2 0.7 99
2019-06-21 02:00:00 12.2 2 Norte 15 Norte 0.9 968.1 0.2 99
2019-06-21 01:00:00 12.5 0 Calma 6 Noroeste 0.7 968.4 0.8 99
2019-06-21 00:00:00 12.7 4 Nordeste 18 Nordeste 0.2 967.5 0.5 97
2019-06-20 23:00:00 13.1 0 Calma 18 Noroeste 0.2 967.9 0.7 96
2019-06-20 22:00:00 13.8 0 Calma 15 Noroeste 0 967.6 0.6 87
2019-06-20 21:00:00 14.2 4 Norte 13 Norte 0 967 0.1 82
2019-06-20 20:00:00 14.8 4 Norte 14 Norte 0 967.2 0.1 80
2019-06-20 19:00:00 15.1 6 Noroeste 21 Noroeste 0 967 -0.3 77
2019-06-20 18:00:00 15.4 2 Norte 15 Noroeste 0 966.9 -0.4 79
2019-06-20 17:00:00 15.5 4 Norte 15 Noroeste 0 967.1 -0.4 80
2019-06-20 16:00:00 15.1 4 Norte 17 Nordeste 0 967.3 -0.6 81
2019-06-20 15:00:00 15 4 Norte 15 Nordeste 0 967.3 -0.4 83
2019-06-20 14:00:00 14.7 5 Norte 17 Norte 0 967.5 0.1 88
2019-06-20 13:00:00 13.7 3 Nordeste 13 Noroeste 0 967.9 0.6 97
2019-06-20 12:00:00 13.7 3 Norte 15 Norte 0 967.7 0.3 97
2019-06-20 11:00:00 13.8 4 Norte 13 Norte 0 967.4 0.2 97
2019-06-20 10:00:00 14.2 3 Norte 8 Noroeste 0.2 967.3 0 99
2019-06-20 09:00:00 13.8 0 Calma 8 Noroeste 0 967.4 0.5 98
2019-06-20 08:00:00 13.6 0 Calma 8 Noroeste 0 967.2 0.4 99
2019-06-20 07:00:00 13.5 2 Oeste 9 Oeste 0 967.3 0.3 99
2019-06-20 06:00:00 13.4 3 Oeste 11 Noroeste 0 966.9 -0.2 99
2019-06-20 05:00:00 13.4 0 Calma 6 Oeste 0 966.8 -0.6 99
2019-06-20 04:00:00 13.5 2 Oeste 8 Oeste 0 967 -0.4 99
2019-06-20 03:00:00 13.8 4 Oeste 12 Oeste 0 967.1 -0.4 99
2019-06-20 02:00:00 14.1 3 Oeste 8 Oeste 0 967.4 0.3 97
2019-06-20 01:00:00 14.4 0 Calma 8 Oeste 0 967.4 1 95
2019-06-20 00:00:00 14.4 3 Oeste 9 Oeste 0 967.5 1.6 94
2019-06-19 23:00:00 14.7 3 Noroeste 15 Noroeste 0 967.1 1.7 91
2019-06-19 22:00:00 15.2 6 Noroeste 21 Norte 0 966.4 1.7 85
2019-06-19 21:00:00 15.7 6 Norte 21 Noroeste 0 965.9 1.6 80
2019-06-19 20:00:00 16.2 8 Norte 24 Noroeste 0 965.4 1.1 79
2019-06-19 19:00:00 18.3 6 Norte 23 Noroeste 0 964.7 0.6 71
2019-06-19 18:00:00 20.5 11 Noroeste 21 Norte 0 964.3 0.3 62
2019-06-19 17:00:00 21.4 7 Norte 21 Nordeste 0 964.3 0.7 61
2019-06-19 16:00:00 22 12 Noroeste 28 Noroeste 0 964.1 0.3 58
2019-06-19 15:00:00 22 12 Noroeste 48 Noroeste 0 964 0.3 55
2019-06-19 14:00:00 23.9 5 Noroeste 24 Noroeste 0 963.6 0.2 43
2019-06-19 13:00:00 22.8 4 Sudoeste 25 Oeste 0 963.8 0.2 46
2019-06-19 12:00:00 22.9 3 Noroeste 22 Noroeste 0 963.7 -0.1 46
2019-06-19 11:00:00 21.7 3 Oeste 26 Sur 0 963.4 0 51
2019-06-19 10:00:00 20.4 2 Sudoeste 22 Sudoeste 0 963.6 0.3 57
2019-06-19 09:00:00 18.3 2 Oeste 17 Sur 0 963.8 0.4 64
2019-06-19 08:00:00 14.2 0 Calma 10 Oeste 0 963.4 0.3 90
2019-06-19 07:00:00 13 0 Calma 4 Sudoeste 0 963.3 0.4 92
2019-06-19 06:00:00 12.4 0 Calma 5 Sudoeste 0 963.4 0.6 93
2019-06-19 05:00:00 12.7 0 Calma 0 Calma 0 963.1 0.5 91
2019-06-19 04:00:00 12.7 0 Calma 3 Sudoeste 0 962.9 0.5 91
2019-06-19 03:00:00 13.3 0 Calma 8 Sudoeste 0 962.8 0.6 91
2019-06-19 02:00:00 14.6 0 Calma 14 Oeste 0 962.6 0.3 83
2019-06-19 01:00:00 15 8 Oeste 21 Oeste 0 962.4 0.9 85
2019-06-19 00:00:00 15.3 0 Calma 12 Oeste 0 962.2 1.9 85
2019-06-18 23:00:00 15.9 5 Oeste 23 Oeste 0 962.3 2.9 87
2019-06-18 22:00:00 16.3 6 Oeste 27 Noroeste 0 961.5 2.8 86
2019-06-18 21:00:00 20.2 12 Oeste 29 Oeste 0 960.3 2.1 68
2019-06-18 20:00:00 24.8 11 Oeste 26 Oeste 0 959.4 0.9 49
2019-06-18 19:00:00 26.7 17 Oeste 37 Oeste 0 958.7 -0.4 38
2019-06-18 18:00:00 31.1 3 Oeste 22 Noroeste 0 958.2 -1.6 22
2019-06-18 17:00:00 31.2 5 Sur 21 Oeste 0 958.5 -1.9 23
2019-06-18 16:00:00 30.6 4 Sudeste 26 Este 0 959.1 -1.7 25
2019-06-18 15:00:00 29.2 10 Sudeste 33 Sudeste 0 959.8 -1.4 27
2019-06-18 14:00:00 28.9 3 Sudeste 23 Sudeste 0 960.4 -0.9 29
2019-06-18 13:00:00 27.5 8 Sudeste 24 Este 0 960.8 -1.1 30
2019-06-18 12:00:00 25.2 8 Sudeste 22 Sudeste 0 961.2 -1 34
2019-06-18 11:00:00 23.9 5 Este 19 Este 0 961.3 -1 35
2019-06-18 10:00:00 23.3 6 Este 24 Este 0 961.9 -0.2 39
2019-06-18 09:00:00 20.3 0 Calma 13 Sur 0 962.2 0 57
2019-06-18 08:00:00 15.4 0 Calma 0 Calma 0 962.3 -0.3 99
2019-06-18 07:00:00 13 0 Calma 4 Sudeste 0 962.1 -1 99
2019-06-18 06:00:00 13.5 2 Sudeste 6 Sudeste 0 962.2 -1.2 99
2019-06-18 05:00:00 13.6 0 Calma 23 Oeste 0 962.6 -0.4 99
2019-06-18 04:00:00 13.9 11 Oeste 25 Noroeste 0 963.1 -1 99
2019-06-18 03:00:00 14.6 2 Oeste 8 Oeste 0 963.4 -0.8 98
2019-06-18 02:00:00 14.5 2 Oeste 25 Oeste 0 963 -1 98
2019-06-18 01:00:00 15.1 3 Oeste 18 Noroeste 0 964.1 0.5 96
2019-06-18 00:00:00 15.2 0 Calma 16 Oeste 0 964.2 1.5 96
2019-06-17 23:00:00 15.6 5 Oeste 26 Oeste 0 964 1.4 94
2019-06-17 22:00:00 16.8 14 Oeste 28 Oeste 0 963.6 1.3 90
2019-06-17 21:00:00 20.2 13 Oeste 26 Oeste 0 962.7 0.3 73
2019-06-17 20:00:00 23.7 11 Oeste 23 Oeste 0 962.6 -0.3 57
2019-06-17 19:00:00 26.2 6 Norte 21 Noroeste 0 962.3 -1.2 46
2019-06-17 18:00:00 29.4 5 Este 22 Este 0 962.4 -1.7 31
2019-06-17 17:00:00 29.1 5 Este 17 Este 0 962.9 -1.9 31
2019-06-17 16:00:00 28.8 6 Este 19 Este 0 963.5 -1.9 33
2019-06-17 15:00:00 27.5 5 Este 19 Este 0 964.1 -1.9 36
2019-06-17 14:00:00 26.1 9 Este 19 Este 0 964.8 -1.5 40
2019-06-17 13:00:00 24.6 6 Este 17 Este 0 965.4 -1.2 46
2019-06-17 12:00:00 22.7 5 Este 12 Este 0 966 -1 53
2019-06-17 11:00:00 18.9 4 Este 9 Este 0 966.3 -0.9 73
2019-06-17 10:00:00 14.4 3 Este 8 Este 0 966.6 -0.4 99
2019-06-17 09:00:00 12.5 0 Calma 6 Oeste 0 967 0 99
2019-06-17 08:00:00 12 3 Oeste 6 Noroeste 0 967.2 0.1 99
2019-06-17 07:00:00 12.1 2 Oeste 7 Oeste 0 967 -0.5 99
2019-06-17 06:00:00 12.3 0 Calma 4 Noroeste 0 967 -1.1 99
2019-06-17 05:00:00 12.4 2 Oeste 10 Noroeste 0 967.1 -1.1 99
2019-06-17 04:00:00 12.4 5 Oeste 14 Oeste 0 967.5 -1 99
2019-06-17 03:00:00 12.6 8 Oeste 19 Noroeste 0 968.1 -0.2 99
2019-06-17 02:00:00 12.7 5 Oeste 14 Oeste 0 968.2 0.1 99
2019-06-17 01:00:00 13.5 5 Oeste 14 Oeste 0 968.5 0.9 96
2019-06-17 00:00:00 14.7 5 Oeste 14 Oeste 0 968.3 0.9 90
2019-06-16 23:00:00 16.1 3 Oeste 7 Oeste 0 968.1 0.9 85
2019-06-16 22:00:00 17.3 2 Noroeste 10 Norte 0 967.6 0.6 76
2019-06-16 21:00:00 19.5 4 Norte 13 Noroeste 0 967.4 0.5 66
2019-06-16 20:00:00 20.7 4 Norte 17 Norte 0 967.2 0 62
2019-06-16 19:00:00 21.7 10 Noroeste 19 Noroeste 0 967 -0.4 57
2019-06-16 18:00:00 23.1 10 Norte 22 Noroeste 0 966.9 -1.1 52
2019-06-16 17:00:00 24.6 5 Norte 24 Noroeste 0 967.2 -1.5 45
2019-06-16 16:00:00 24.3 6 Nordeste 17 Sudeste 0 967.4 -2.3 43
2019-06-16 15:00:00 23.3 7 Sudeste 16 Sudeste 0 968 -2.2 42
2019-06-16 14:00:00 21.7 3 Este 13 Sudeste 0 968.7 -2 49
2019-06-16 13:00:00 19.8 4 Este 14 Sudeste 0 969.7 -1.2 55
2019-06-16 12:00:00 17.6 2 Sudeste 13 Este 0 970.2 -0.9 60
2019-06-16 11:00:00 15.4 5 Este 12 Este 0 970.7 -0.4 70
2019-06-16 10:00:00 13.8 2 Este 9 Este 0 970.9 -0.1 78
2019-06-16 09:00:00 11.4 2 Este 6 Este 0 971.1 0.1 85
2019-06-16 08:00:00 9 0 Calma 0 Calma 0 971.1 -0.2 99
2019-06-16 07:00:00 6.9 0 Calma 0 Calma 0 971 -0.6 99
2019-06-16 06:00:00 6.5 0 Calma 0 Calma 0 971 -0.8 99
2019-06-16 05:00:00 7 0 Calma 0 Calma 0 971.3 -1.2 98
2019-06-16 04:00:00 7.5 0 Calma 5 Sudoeste 0 971.6 -1.2 97
2019-06-16 03:00:00 7.7 0 Calma 5 Sudoeste 0 971.8 -1 96
2019-06-16 02:00:00 8 0 Calma 2 Sudoeste 0 972.5 -0.3 91
2019-06-16 01:00:00 8.6 0 Calma 4 Sudoeste 0 972.8 0.8 89
2019-06-16 00:00:00 9.2 0 Calma 5 Noroeste 0 972.8 0.9 81
2019-06-15 23:00:00 11.1 2 Noroeste 18 Noroeste 0 972.8 1.2 70
2019-06-15 22:00:00 12.8 5 Norte 23 Norte 0 972 0.9 56
2019-06-15 21:00:00 14.7 7 Norte 18 Noroeste 0 971.9 1.2 52
2019-06-15 20:00:00 15.8 10 Noroeste 23 Noroeste 0 971.6 1 49
2019-06-15 19:00:00 16.8 8 Norte 24 Noroeste 0 971.1 0.5 49
2019-06-15 18:00:00 17.3 7 Norte 21 Noroeste 0 970.7 0.3 49
2019-06-15 17:00:00 17.6 5 Norte 18 Norte 0 970.6 -0.1 50
2019-06-15 16:00:00 17.5 8 Norte 26 Noroeste 0 970.6 0 52
2019-06-15 15:00:00 17.7 5 Norte 17 Noroeste 0 970.4 0 51
2019-06-15 14:00:00 17.5 7 Norte 17 Norte 0 970.7 0.7 51
2019-06-15 13:00:00 16.8 5 Noroeste 12 Nordeste 0 970.6 0.7 56
2019-06-15 12:00:00 14.9 3 Oeste 17 Oeste 0 970.4 1 61
2019-06-15 11:00:00 14.1 5 Oeste 19 Oeste 0 970 1.1 66
2019-06-15 10:00:00 12.6 11 Oeste 17 Noroeste 0 969.9 1.2 70
2019-06-15 09:00:00 11.6 3 Noroeste 6 Noroeste 0 969.4 1.1 84
2019-06-15 08:00:00 9.6 0 Calma 6 Sudoeste 0 968.9 0.7 99
2019-06-15 07:00:00 8.3 0 Calma 4 Sudoeste 0 968.7 0.8 99
2019-06-15 06:00:00 8.6 0 Calma 4 Oeste 0 968.3 0.8 99
2019-06-15 05:00:00 9.1 0 Calma 3 Oeste 0 968.2 0.6 99
2019-06-15 04:00:00 9.9 0 Calma 6 Noroeste 0 967.9 0.2 99
2019-06-15 03:00:00 10 0 Calma 12 Oeste 0 967.5 0.4 99
2019-06-15 02:00:00 10.2 3 Oeste 10 Oeste 0 967.6 1.1 99
2019-06-15 01:00:00 10.1 6 Oeste 17 Noroeste 0 967.7 2.1 99
2019-06-15 00:00:00 10.4 2 Oeste 13 Noroeste 0.1 967.1 2.3 99
2019-06-14 23:00:00 10.7 5 Norte 14 Noroeste 0 966.5 2.3 99
2019-06-14 22:00:00 11.2 5 Noroeste 15 Noroeste 0 965.6 1.7 98
2019-06-14 21:00:00 11.8 8 Noroeste 16 Noroeste 0 964.8 1.5 96
2019-06-14 20:00:00 12.5 6 Noroeste 15 Noroeste 0 964.2 1.1 94
2019-06-14 19:00:00 12.3 4 Noroeste 16 Noroeste 0 963.9 0.9 95
2019-06-14 18:00:00 12.5 5 Noroeste 15 Noroeste 0 963.3 0.2 92
2019-06-14 17:00:00 13.2 4 Norte 15 Noroeste 0 963.1 0.3 86
2019-06-14 16:00:00 13.5 8 Noroeste 15 Noroeste 0 963 0.3 84
2019-06-14 15:00:00 13.3 10 Noroeste 20 Noroeste 0 963.1 0.2 82
2019-06-14 14:00:00 14.5 7 Norte 16 Noroeste 0 962.8 -0.4 75
2019-06-14 13:00:00 13.9 2 Norte 10 Noroeste 0.1 962.7 -0.2 77
2019-06-14 12:00:00 13.2 2 Nordeste 7 Sudeste 0 962.9 -0.1 82
2019-06-14 11:00:00 12.1 0 Calma 12 Noroeste 0 963.2 0.2 85
2019-06-14 10:00:00 11.3 0 Calma 8 Norte 0 962.9 -0.1 88
2019-06-14 09:00:00 10.6 0 Calma 3 Norte 0 963 0.1 97
2019-06-14 08:00:00 9.6 0 Calma 4 Norte 0 963 0 99
2019-06-14 07:00:00 9.3 0 Calma 2 Este 0 963 -0.7 99
2019-06-14 06:00:00 9.6 0 Calma 4 Este 0 962.9 -1 99
2019-06-14 05:00:00 9.6 0 Calma 2 Noroeste 0 963 -1.4 99
2019-06-14 04:00:00 10.2 0 Calma 4 Oeste 0.1 963.7 -1.1 99
2019-06-14 03:00:00 10.2 0 Calma 4 Noroeste 0 963.9 -0.8 99
2019-06-14 02:00:00 10.1 0 Calma 6 Oeste 0 964.4 -0.1 99
2019-06-14 01:00:00 10.1 0 Calma 8 Oeste 0 964.8 1.3 99
2019-06-14 00:00:00 10.1 3 Oeste 11 Oeste 0 964.7 2.1 98
2019-06-13 23:00:00 10.5 4 Oeste 11 Oeste 0 964.5 2.6 96
2019-06-13 22:00:00 11.2 5 Norte 18 Noroeste 0 963.5 2.3 86
2019-06-13 21:00:00 11.9 10 Noroeste 21 Norte 0 962.6 1.7 75
2019-06-13 20:00:00 11.9 7 Noroeste 21 Noroeste 0 961.9 1.4 83
2019-06-13 19:00:00 12.4 9 Noroeste 20 Noroeste 0 961.2 0.9 87
2019-06-13 18:00:00 12.8 9 Norte 26 Norte 0 960.9 1.2 84
2019-06-13 17:00:00 14.2 13 Norte 27 Noroeste 0 960.5 0.4 75
2019-06-13 16:00:00 16.3 13 Norte 26 Noroeste 0 960.3 -0.4 68
2019-06-13 15:00:00 18.1 10 Norte 26 Noroeste 0 959.7 -1.5 62
2019-06-13 14:00:00 20 6 Norte 19 Este 0 960.1 -1.5 53
2019-06-13 13:00:00 18.8 8 Este 23 Este 0 960.7 -1.1 49
2019-06-13 12:00:00 17 6 Este 13 Este 0 961.2 -0.9 53
2019-06-13 11:00:00 14.8 5 Oeste 13 Oeste 0 961.6 -0.6 64
2019-06-13 10:00:00 12.7 0 Calma 6 Noroeste 0 961.8 -0.7 73
2019-06-13 09:00:00 9.1 0 Calma 5 Noroeste 0 962.1 -0.1 97
2019-06-13 08:00:00 7.1 0 Calma 0 Calma 0 962.2 0.2 99
2019-06-13 07:00:00 5.1 0 Calma 4 Sudoeste 0 962.5 -0.1 99
2019-06-13 06:00:00 5.3 0 Calma 0 Calma 0 962.2 -0.9 99
2019-06-13 05:00:00 5.5 0 Calma 0 Calma 0 962 -1.8 99
2019-06-13 04:00:00 5.9 0 Calma 6 Sudoeste 0 962.6 -1.7 99
2019-06-13 03:00:00 6.3 0 Calma 5 Sudoeste 0 963.1 -1.6 99
2019-06-13 02:00:00 7.1 0 Calma 4 Oeste 0 963.8 -1.2 99
2019-06-13 01:00:00 7.9 0 Calma 2 Oeste 0 964.3 -0.3 96
2019-06-13 00:00:00 8.9 0 Calma 3 Noroeste 0 964.7 0.3 92
2019-06-12 23:00:00 10.3 0 Calma 3 Sudeste 0 965 0.6 87
2019-06-12 22:00:00 10.6 0 Calma 10 Norte 0 964.6 0.6 85
2019-06-12 21:00:00 11 4 Norte 16 Noroeste 0 964.4 0.4 82
2019-06-12 20:00:00 11.6 9 Noroeste 23 Noroeste 0 964.4 0.5 76
2019-06-12 19:00:00 13.5 5 Norte 22 Noroeste 0 964 0.4 65
2019-06-12 18:00:00 14.3 7 Norte 23 Norte 0 964 0.2 63
2019-06-12 17:00:00 13.7 6 Norte 25 Noroeste 0 963.9 -0.5 63
2019-06-12 16:00:00 15.6 4 Norte 19 Nordeste 0 963.6 -1 52
2019-06-12 15:00:00 16.3 4 Noroeste 18 Noroeste 0 963.8 -0.8 42
2019-06-12 14:00:00 15.5 8 Noroeste 23 Oeste 0 964.4 -0.1 44
2019-06-12 13:00:00 14.5 8 Noroeste 19 Noroeste 0 964.6 0.1 46
2019-06-12 12:00:00 14.1 3 Sudoeste 16 Oeste 0 964.6 0.2 48
2019-06-12 11:00:00 12.6 7 Oeste 23 Oeste 0 964.5 0.2 51
2019-06-12 10:00:00 11.7 9 Noroeste 24 Oeste 0 964.5 0.3 56
2019-06-12 09:00:00 7.9 3 Noroeste 16 Oeste 0 964.4 0.4 86
2019-06-12 08:00:00 5.1 0 Calma 8 Sudoeste 0 964.3 0.3 99
2019-06-12 07:00:00 4.4 0 Calma 6 Sur 0 964.2 0 99
2019-06-12 06:00:00 4.4 0 Calma 0 Calma 0 964 -0.6 99
2019-06-12 05:00:00 4.7 0 Calma 3 Sudeste 0 964 -0.9 99
2019-06-12 04:00:00 5.1 0 Calma 6 Sudoeste 0 964.2 -1.3 99
2019-06-12 03:00:00 6.3 0 Calma 6 Noroeste 0 964.6 -1.2 99
2019-06-12 02:00:00 6.8 0 Calma 6 Sudeste 0 964.9 -1.5 99
2019-06-12 01:00:00 7.5 2 Sudeste 10 Sudeste 0 965.5 -0.6 99
2019-06-12 00:00:00 7.6 2 Sudeste 5 Sudeste 0 965.8 -0.2 99
2019-06-11 23:00:00 7.6 0 Calma 17 Oeste 0 966.4 0.6 99
2019-06-11 22:00:00 8.6 8 Oeste 18 Oeste 1.5 966.1 0.1 97
2019-06-11 21:00:00 10 10 Oeste 32 Oeste 0 966 0 75
2019-06-11 20:00:00 10.5 10 Oeste 35 Noroeste 0 965.8 -0.3 78
2019-06-11 19:00:00 10.6 9 Noroeste 29 Noroeste 0 966 0 86
2019-06-11 18:00:00 10.2 12 Oeste 36 Noroeste 2.4 966 0.2 93
2019-06-11 17:00:00 10.1 13 Oeste 48 Oeste 2 966.1 0.1 92
2019-06-11 16:00:00 10 18 Oeste 56 Oeste 0.4 966 0.1 78
2019-06-11 15:00:00 9.4 16 Oeste 39 Oeste 0.3 965.8 0.2 88
2019-06-11 14:00:00 9.7 17 Oeste 35 Oeste 0.1 966 0.8 79
2019-06-11 13:00:00 9.2 16 Oeste 32 Oeste 0.3 965.9 0.7 90
2019-06-11 12:00:00 8.6 17 Oeste 35 Oeste 0.6 965.6 0.8 88
2019-06-11 11:00:00 10.1 18 Oeste 32 Oeste 0.1 965.2 0.7 84
2019-06-11 10:00:00 8.6 12 Noroeste 21 Oeste 0.3 965.2 0.5 94
2019-06-11 09:00:00 8 13 Oeste 23 Oeste 0.3 964.8 -0.1 99
2019-06-11 08:00:00 7.4 10 Oeste 18 Oeste 0.1 964.5 -0.5 99
2019-06-11 07:00:00 7.3 6 Oeste 13 Oeste 0.3 964.7 -0.9 99
2019-06-11 06:00:00 7.3 4 Oeste 14 Oeste 0.1 964.9 -0.7 99
2019-06-11 05:00:00 7.5 4 Oeste 14 Oeste 0.5 965 -0.7 99
2019-06-11 04:00:00 7.7 8 Oeste 21 Noroeste 1 965.6 -1.1 99
2019-06-11 03:00:00 8 6 Oeste 10 Oeste 0.3 965.6 -1.2 99
2019-06-11 02:00:00 7.9 0 Calma 4 Oeste 0.6 965.7 -1.4 99
2019-06-11 01:00:00 8.4 0 Calma 2 Oeste 0.5 966.7 -0.6 99
2019-06-11 00:00:00 8.8 0 Calma 3 Sudoeste 0.1 966.8 -0.7 95
2019-06-10 23:00:00 9.2 0 Calma 9 Oeste 0 967.1 -0.5 91
2019-06-10 22:00:00 9.7 0 Calma 15 Noroeste 0 967.3 -0.1 82
2019-06-10 21:00:00 10.2 6 Noroeste 15 Noroeste 0 967.5 -0.2 75
2019-06-10 20:00:00 10.9 5 Noroeste 14 Noroeste 0 967.6 -0.5 73
2019-06-10 19:00:00 11.3 3 Norte 15 Noroeste 0 967.4 -1.2 71
2019-06-10 18:00:00 11.9 4 Norte 16 Nordeste 0 967.7 -1.1 69
2019-06-10 17:00:00 12.8 5 Norte 19 Norte 0 968.1 -1 64
2019-06-10 16:00:00 12.4 9 Noroeste 20 Noroeste 0 968.6 -0.5 64
2019-06-10 15:00:00 12.6 4 Norte 17 Oeste 0 968.8 -0.8 68
2019-06-10 14:00:00 11.4 12 Oeste 23 Oeste 0 969.1 -0.7 75
2019-06-10 13:00:00 12.5 3 Oeste 14 Oeste 0 969.1 -0.7 72
2019-06-10 12:00:00 10.3 8 Oeste 17 Oeste 0 969.6 -0.2 83
2019-06-10 11:00:00 9.8 4 Noroeste 17 Oeste 0 969.8 0.2 83
2019-06-10 10:00:00 10.5 0 Calma 10 Nordeste 0 969.8 0.4 88
2019-06-10 09:00:00 9.2 3 Noroeste 11 Oeste 0 969.8 0.4 99
2019-06-10 08:00:00 8.6 3 Oeste 11 Oeste 0 969.6 -0.1 99
2019-06-10 07:00:00 8.7 0 Calma 10 Oeste 0 969.4 -0.7 98
2019-06-10 06:00:00 8.9 4 Oeste 11 Noroeste 0 969.4 -1.3 96
2019-06-10 05:00:00 9.2 5 Noroeste 13 Noroeste 0 969.7 -1.4 92
2019-06-10 04:00:00 9.1 6 Noroeste 12 Noroeste 0.1 970.1 -1.2 97
2019-06-10 03:00:00 9.8 3 Noroeste 15 Oeste 0 970.7 -0.5 92
2019-06-10 02:00:00 10 8 Noroeste 27 Norte 0 971.1 0.4 92
2019-06-10 01:00:00 10.1 4 Noroeste 17 Oeste 0 971.3 1.1 99
2019-06-10 00:00:00 10.5 5 Oeste 20 Oeste 0 971.2 1.2 95
2019-06-09 23:00:00 10.8 15 Oeste 26 Noroeste 0.1 970.7 1.4 94
2019-06-09 22:00:00 10.9 7 Noroeste 28 Norte 0.4 970.2 1.5 99
2019-06-09 21:00:00 11.3 9 Noroeste 23 Noroeste 0.5 970 1.7 99
2019-06-09 20:00:00 11.7 8 Noroeste 20 Nordeste 0 969.3 1.5 98
2019-06-09 19:00:00 12.1 8 Norte 20 Noroeste 0 968.7 1 97
2019-06-09 18:00:00 13.3 6 Norte 21 Noroeste 0 968.3 1 91
2019-06-09 17:00:00 14.7 10 Norte 23 Noroeste 0 967.8 0.8 81
2019-06-09 16:00:00 15.5 10 Noroeste 24 Noroeste 0 967.7 0.6 76
2019-06-09 15:00:00 16.7 9 Norte 19 Norte 0 967.3 -0.2 69
2019-06-09 14:00:00 17.7 9 Noroeste 21 Oeste 0 967 -0.7 61
2019-06-09 13:00:00 17.6 9 Oeste 18 Oeste 0 967.1 -0.8 61
2019-06-09 12:00:00 16.7 5 Noroeste 17 Oeste 0 967.5 -0.5 64
2019-06-09 11:00:00 14.8 6 Oeste 17 Oeste 0 967.7 -0.1 70
2019-06-09 10:00:00 12.9 8 Oeste 15 Oeste 0 967.9 0.4 79
2019-06-09 09:00:00 11.6 9 Oeste 14 Noroeste 0 968 0.3 91
2019-06-09 08:00:00 10.5 4 Oeste 13 Oeste 0 967.8 -0.3 97
2019-06-09 07:00:00 10.4 3 Oeste 10 Oeste 0 967.5 -1.2 97
2019-06-09 06:00:00 10.4 4 Noroeste 14 Oeste 0 967.7 -1.3 97
2019-06-09 05:00:00 10.5 7 Oeste 14 Oeste 0 968.1 -1.6 96
2019-06-09 04:00:00 10.6 11 Oeste 21 Noroeste 0 968.7 -1.6 96
2019-06-09 03:00:00 11 3 Oeste 12 Oeste 0 969 -1.7 94
2019-06-09 02:00:00 11.6 0 Calma 7 Oeste 0 969.7 -0.8 93
2019-06-09 01:00:00 11.8 2 Noroeste 13 Noroeste 0 970.3 -0.2 91
2019-06-09 00:00:00 11.8 5 Noroeste 16 Noroeste 0 970.7 0.3 90
2019-06-08 23:00:00 11.9 3 Nordeste 17 Norte 0 970.5 0.5 89
2019-06-08 22:00:00 12.2 4 Norte 24 Norte 0 970.5 0.5 85
2019-06-08 21:00:00 12.7 5 Norte 21 Norte 0 970.4 0.4 82
2019-06-08 20:00:00 14 5 Norte 22 Noroeste 0 970 -0.1 74
2019-06-08 19:00:00 15.4 8 Norte 24 Norte 0 970 -0.6 68
2019-06-08 18:00:00 16.2 13 Noroeste 25 Noroeste 0 970 -1.1 66
2019-06-08 17:00:00 16 9 Norte 24 Norte 0 970.1 -1.8 64
2019-06-08 16:00:00 17.6 7 Norte 24 Noroeste 0 970.6 -2.2 56
2019-06-08 15:00:00 17.2 10 Noroeste 27 Noroeste 0 971.1 -2.1 56
2019-06-08 14:00:00 16.9 8 Norte 26 Noroeste 0 971.9 -1.8 56
2019-06-08 13:00:00 16.4 3 Nordeste 18 Sudeste 0 972.8 -1.3 52
2019-06-08 12:00:00 14.6 5 Sudeste 17 Sudeste 0 973.2 -1.1 56
2019-06-08 11:00:00 13.6 6 Sudeste 18 Sudeste 0 973.7 -0.4 60
2019-06-08 10:00:00 12 3 Nordeste 8 Este 0 974.1 -0.2 76
2019-06-08 09:00:00 10.2 0 Calma 3 Este 0 974.3 0.5 82
2019-06-08 08:00:00 7.1 0 Calma 0 Calma 0 974.1 0.4 99
2019-06-08 07:00:00 5.3 0 Calma 0 Calma 0 974.3 0.7 99
2019-06-08 06:00:00 5.1 0 Calma 0 Calma 0 973.8 0.1 99
2019-06-08 05:00:00 5.1 0 Calma 7 Sudoeste 0 973.7 -0.1 99
2019-06-08 04:00:00 5.4 0 Calma 5 Sudoeste 0 973.6 0 99
2019-06-08 03:00:00 5.4 0 Calma 6 Sudoeste 0 973.7 0.4 97
2019-06-08 02:00:00 5.7 0 Calma 8 Sudoeste 0 973.8 0.9 94
2019-06-08 01:00:00 6.1 0 Calma 8 Sudoeste 0 973.6 1.5 90
2019-06-08 00:00:00 7.1 2 Oeste 8 Sudoeste 0 973.3 1.8 83
2019-06-07 23:00:00 8.8 0 Calma 3 Oeste 0 972.9 2 73
2019-06-07 22:00:00 10 0 Calma 13 Oeste 0 972.1 2.2 69
2019-06-07 21:00:00 11.8 8 Oeste 20 Oeste 0 971.5 2.3 60
2019-06-07 20:00:00 12.6 8 Noroeste 17 Noroeste 0 970.9 2.5 59
2019-06-07 19:00:00 13.3 2 Nordeste 17 Noroeste 0 969.9 2.7 67
2019-06-07 18:00:00 13.6 4 Norte 17 Nordeste 0.2 969.2 3.1 61
2019-06-07 17:00:00 13.3 5 Nordeste 15 Nordeste 0 968.4 2.9 63
2019-06-07 16:00:00 14.7 8 Este 21 Este 0 967.2 2.5 54
2019-06-07 15:00:00 15.8 5 Norte 24 Noroeste 0 966.1 2.5 47
2019-06-07 14:00:00 17.2 4 Oeste 31 Noroeste 0 965.5 3.2 38
2019-06-07 13:00:00 16.2 3 Oeste 29 Sudoeste 0 964.7 3.8 43
2019-06-07 12:00:00 15.8 6 Oeste 37 Noroeste 0 963.6 3.7 46
2019-06-07 11:00:00 14 4 Oeste 36 Oeste 0 962.3 2.7 50
2019-06-07 10:00:00 12.9 6 Noroeste 43 Noroeste 0 960.9 2.8 53
2019-06-07 09:00:00 12 9 Oeste 35 Oeste 0 959.9 2.6 56
2019-06-07 08:00:00 10.6 15 Oeste 63 Oeste 0 959.6 2.9 62
2019-06-07 07:00:00 10.1 6 Oeste 43 Noroeste 0 958.1 1.7 63
2019-06-07 06:00:00 10.1 9 Oeste 51 Noroeste 0.1 957.3 1.3 64
2019-06-07 05:00:00 10.4 9 Oeste 55 Oeste 0 956.7 2 63
2019-06-07 04:00:00 10.3 17 Noroeste 52 Sudoeste 0 956.4 1.8 67
2019-06-07 03:00:00 11.6 9 Oeste 34 Oeste 0.5 956 2.3 69
2019-06-07 02:00:00 13.7 3 Sudoeste 27 Sur 0.9 954.7 1.8 77
2019-06-07 01:00:00 16.5 7 Sur 24 Sur 0.1 954.6 2.4 48
2019-06-07 00:00:00 19 4 Sur 32 Sudeste 0 953.7 1.5 38
2019-06-06 23:00:00 19.6 10 Sudeste 31 Este 0 952.9 0.2 39
2019-06-06 22:00:00 21.9 6 Sur 41 Sudeste 0 952.2 -0.7 26
2019-06-06 21:00:00 21.3 4 Sudeste 30 Sudeste 0 952.2 -2 29
2019-06-06 20:00:00 21.7 5 Sudeste 36 Sudeste 0 952.7 -2.8 30
2019-06-06 19:00:00 21.9 10 Sudeste 28 Este 0 952.9 -3.9 31
2019-06-06 18:00:00 21.5 9 Sudeste 46 Sudeste 0 954.2 -4 35
2019-06-06 17:00:00 20.9 9 Sudeste 32 Este 0 955.5 -4 37
2019-06-06 16:00:00 20.8 6 Sudeste 33 Sudeste 0 956.8 -3.7 40
2019-06-06 15:00:00 19.4 11 Sudeste 43 Sudeste 0 958.2 -3.1 43
2019-06-06 14:00:00 17.5 12 Sudeste 36 Sudeste 0 959.5 -2.5 43
2019-06-06 13:00:00 17.3 5 Este 19 Este 0 960.5 -2.5 51
2019-06-06 12:00:00 15 5 Nordeste 15 Nordeste 0 961.3 -2.6 62
2019-06-06 11:00:00 12.9 6 Este 13 Este -- 962 -2.1 68
2019-06-06 10:00:00 10.8 4 Este 9 Este 0 963 -0.6 73
2019-06-06 09:00:00 8.3 0 Calma 2 Este 0 963.9 -0.6 95
2019-06-06 08:00:00 7 0 Calma 0 Calma 0 964.1 -0.5 99
2019-06-06 07:00:00 6.1 0 Calma 0 Calma 0 963.6 -1.1 99
2019-06-06 06:00:00 6.1 0 Calma 4 Sudoeste 0 964.5 -0.5 99
2019-06-06 05:00:00 6.2 0 Calma 4 Sudoeste 0 964.6 -0.6 98
2019-06-06 04:00:00 6.7 0 Calma 4 Sudoeste 0 964.7 -0.8 97
2019-06-06 03:00:00 7.2 0 Calma 2 Oeste 0 965 -0.8 96
2019-06-06 02:00:00 7.8 0 Calma 5 Oeste 0 965.2 -0.6 95
2019-06-06 01:00:00 7.9 0 Calma 9 Oeste 0 965.5 0.3 94
2019-06-06 00:00:00 8.3 0 Calma 0 Calma 0 965.8 1.1 90
2019-06-05 23:00:00 9.1 0 Calma 15 Noroeste 0 965.8 1.3 81
2019-06-05 22:00:00 10.2 9 Noroeste 21 Noroeste 0 965.2 1 70
2019-06-05 21:00:00 10.8 2 Oeste 16 Noroeste 0 964.7 0.8 72
2019-06-05 20:00:00 12 9 Oeste 26 Oeste 0 964.5 0.8 63
2019-06-05 19:00:00 12.9 13 Oeste 31 Oeste 0 964.2 0.6 59
2019-06-05 18:00:00 12.4 11 Noroeste 24 Noroeste 0 963.9 0.8 70
2019-06-05 17:00:00 11.9 14 Oeste 31 Oeste 0 963.7 0.7 81
2019-06-05 16:00:00 11.9 14 Oeste 32 Oeste 0 963.6 1.2 77
2019-06-05 15:00:00 10.9 5 Oeste 29 Oeste 0.6 963.1 1.4 94
2019-06-05 14:00:00 9.9 9 Oeste 25 Oeste 1.2 963 1.8 99
2019-06-05 13:00:00 9.6 13 Oeste 36 Noroeste 0.5 962.4 1.6 97
2019-06-05 12:00:00 9.2 16 Oeste 26 Oeste 0.2 961.7 0.4 99
2019-06-05 11:00:00 9 8 Oeste 18 Oeste 0.5 961.2 1 99
2019-06-05 10:00:00 8.5 9 Oeste 21 Oeste 3.8 960.8 0.7 99
2019-06-05 09:00:00 8.5 7 Oeste 22 Oeste 7.2 961.3 1.7 99
2019-06-05 08:00:00 8.7 9 Oeste 32 Oeste 4.2 960.2 0.3 99
2019-06-05 07:00:00 9 10 Oeste 23 Oeste 2.3 960.1 -0.3 99
2019-06-05 06:00:00 9.3 9 Oeste 18 Oeste 2.2 959.6 -1.2 99
2019-06-05 05:00:00 9.8 4 Oeste 15 Noroeste 0 959.9 -1.9 97
2019-06-05 04:00:00 10.3 0 Calma 11 Noroeste 0 960.4 -1.8 96
2019-06-05 03:00:00 10.2 0 Calma 6 Noroeste 0 960.8 -1.8 99
2019-06-05 02:00:00 10.4 0 Calma 3 Sudoeste 0 961.8 -0.9 99
2019-06-05 01:00:00 10.3 0 Calma 12 Oeste 0 962.2 -0.4 99
2019-06-05 00:00:00 10.9 2 Oeste 9 Oeste 0 962.6 -0.2 99
2019-06-04 23:00:00 10.7 0 Calma 5 Este 0 962.7 0.5 99
2019-06-04 22:00:00 10.9 0 Calma 10 Oeste 0 962.6 1.1 97
2019-06-04 21:00:00 10.9 0 Calma 27 Noroeste 0.2 962.8 1.6 97
2019-06-04 20:00:00 11.2 14 Oeste 28 Oeste 0 962.2 1.3 99
2019-06-04 19:00:00 12.7 17 Oeste 29 Noroeste 0.2 961.5 1.4 95
2019-06-04 18:00:00 15.5 14 Noroeste 27 Noroeste 0 961.2 2.2 78
2019-06-04 17:00:00 16 15 Noroeste 31 Noroeste 0 960.9 2.3 81
2019-06-04 16:00:00 19.2 12 Norte 31 Noroeste 0 960.1 1.2 72
2019-06-04 15:00:00 21.6 15 Norte 32 Noroeste 0 959 0 59
2019-06-04 14:00:00 25.4 9 Noroeste 23 Oeste 0 958.6 -0.4 43
2019-06-04 13:00:00 23.8 4 Oeste 22 Oeste 0 958.9 -0.4 44
2019-06-04 12:00:00 23.1 2 Noroeste 23 Este 0 959 -0.1 42
2019-06-04 11:00:00 22.3 7 Sudeste 19 Este 0 959 -0.3 42
2019-06-04 10:00:00 21.2 3 Sudeste 21 Sur 0 959.3 0 46
2019-06-04 09:00:00 18.9 6 Sur 13 Sur 0 959.1 0.4 46
2019-06-04 08:00:00 17.1 0 Calma 15 Sudoeste 0 959.3 0.4 63
2019-06-04 07:00:00 14.9 0 Calma 12 Este 0 959.3 -0.4 65
2019-06-04 06:00:00 15.1 0 Calma 8 Este 0 958.7 -2 68
2019-06-04 05:00:00 13.2 0 Calma 3 Sudoeste 0 958.9 -3 99
2019-06-04 04:00:00 13.8 0 Calma 4 Este 0 959.7 -3.3 98
2019-06-04 03:00:00 14.4 0 Calma 3 Sudeste 0 960.7 -3.1 97
2019-06-04 02:00:00 14.5 0 Calma 8 Oeste 0 961.9 -2.2 97
2019-06-04 01:00:00 14.4 0 Calma 11 Oeste 0 963 -0.6 97
2019-06-04 00:00:00 14.5 0 Calma 9 Oeste 0 963.8 0.4 96
2019-06-03 23:00:00 15.3 6 Oeste 12 Oeste 0 964.1 1 92
2019-06-03 22:00:00 16.4 5 Oeste 17 Oeste 0 963.6 0.3 85
2019-06-03 21:00:00 19 5 Noroeste 14 Oeste 0 963.4 -0.4 72
2019-06-03 20:00:00 20.9 5 Norte 17 Noroeste 0 963.1 -1.1 69
2019-06-03 19:00:00 21.8 7 Norte 19 Norte 0 963.3 -1 66
2019-06-03 18:00:00 22 8 Norte 19 Norte 0 963.8 -1.3 67
2019-06-03 17:00:00 22.7 9 Norte 18 Noroeste 0 964.2 -1.4 63
2019-06-03 16:00:00 23.4 7 Norte 19 Noroeste 0 964.3 -1.8 59
2019-06-03 15:00:00 23.4 7 Norte 17 Noroeste 0 965.1 -1.7 55
2019-06-03 14:00:00 22.6 4 Nordeste 12 Nordeste 0 965.6 -1.9 51
2019-06-03 13:00:00 20.8 0 Calma 13 Este 0 966.1 -1.7 52
2019-06-03 12:00:00 19.6 6 Sudeste 14 Este 0 966.8 -0.7 55
2019-06-03 11:00:00 18.6 4 Este 11 Sudeste 0 967.5 0.4 56
2019-06-03 10:00:00 16.1 4 Noroeste 19 Oeste 0 967.8 0.5 64
2019-06-03 09:00:00 13.6 0 Calma 8 Oeste 0 967.5 0.4 83
2019-06-03 08:00:00 11.9 3 Sudeste 6 Sudeste 0 967.1 -0.2 88
2019-06-03 07:00:00 12.2 0 Calma 6 Oeste 0 967.3 0 82
2019-06-03 06:00:00 11.8 0 Calma 8 Sudoeste 0 967.1 -0.5 84
2019-06-03 05:00:00 11.9 0 Calma 11 Oeste 0 967.3 -1 84
2019-06-03 04:00:00 12.7 0 Calma 4 Oeste 0 967.3 -1.2 80
2019-06-03 03:00:00 13.3 0 Calma 3 Sudeste 0 967.6 -0.8 76
2019-06-03 02:00:00 13.8 0 Calma 6 Sudoeste 0 968.3 0 76
2019-06-03 01:00:00 14.1 0 Calma 3 Oeste 0 968.5 0.7 73
2019-06-03 00:00:00 14.7 0 Calma 6 Oeste 0 968.4 0.9 67
2019-06-02 23:00:00 15.7 0 Calma 5 Noroeste 0 968.3 1.1 57
2019-06-02 22:00:00 18 6 Noroeste 13 Noroeste 0 967.8 0.9 47
2019-06-02 21:00:00 19.7 5 Noroeste 17 Oeste 0 967.5 1 44
2019-06-02 20:00:00 20.7 8 Noroeste 18 Noroeste 0 967.2 1.3 43
2019-06-02 19:00:00 22.6 7 Norte 21 Norte 0 966.9 1.5 46
2019-06-02 18:00:00 23.6 11 Noroeste 27 Noroeste 0 966.5 0.8 45
2019-06-02 17:00:00 25.5 13 Noroeste 26 Noroeste 0 965.9 -0.4 45
2019-06-02 16:00:00 28.9 6 Nordeste 17 Sudeste 0 965.4 -1.3 36
2019-06-02 15:00:00 28.3 9 Este 20 Este 0 965.7 -1.1 37
2019-06-02 14:00:00 27.4 8 Este 21 Este 0 966.3 -0.6 37
2019-06-02 13:00:00 27.1 3 Este 15 Sudeste 0 966.7 -0.6 38
2019-06-02 12:00:00 25.2 7 Este 17 Nordeste 0 966.8 -0.4 43
2019-06-02 11:00:00 23.5 5 Este 17 Sudeste 0 966.9 -0.6 49
2019-06-02 10:00:00 22.7 2 Nordeste 6 Nordeste 0 967.3 0 51
2019-06-02 09:00:00 19.4 0 Calma 8 Sudoeste 0 967.2 -0.3 63
2019-06-02 08:00:00 15.3 3 Sudoeste 11 Sudoeste 0 967.5 0 79
2019-06-02 07:00:00 12.9 2 Sudoeste 9 Sudoeste 0 967.3 -0.3 87
2019-06-02 06:00:00 14 0 Calma 13 Sudoeste 0 967.5 -0.2 82
2019-06-02 05:00:00 13.5 6 Oeste 15 Sudoeste 0 967.5 -0.1 83
2019-06-02 04:00:00 14.9 3 Oeste 8 Sudoeste 0 967.6 -0.1 76
2019-06-02 03:00:00 15.4 0 Calma 4 Oeste 0 967.7 -0.1 72
2019-06-02 02:00:00 16.6 0 Calma 13 Sudoeste 0 967.6 0 68
2019-06-02 01:00:00 17.7 4 Sudoeste 13 Sudoeste 0 967.7 0.7 61
2019-06-02 00:00:00 17.8 2 Sudoeste 8 Sudoeste 0 967.8 1 64
2019-06-01 23:00:00 19.4 0 Calma 5 Sudoeste 0 967.6 1 59
2019-06-01 22:00:00 22.7 0 Calma 3 Sur 0 967 0.3 44
2019-06-01 21:00:00 26.4 0 Calma 10 Sudeste 0 966.8 -0.3 33
2019-06-01 20:00:00 28.3 4 Sudeste 12 Este 0 966.6 -0.9 31
2019-06-01 19:00:00 29.5 4 Este 13 Sudeste 0 966.7 -1.3 31
2019-06-01 18:00:00 29.4 6 Este 17 Este 0 967.1 -1.3 29
2019-06-01 17:00:00 29 9 Este 21 Este 0 967.5 -1.6 30
2019-06-01 16:00:00 28.7 10 Este 23 Este 0 968 -1.7 31
2019-06-01 15:00:00 28.1 10 Este 22 Este 0 968.4 -1.4 31
2019-06-01 14:00:00 27.4 6 Sudeste 22 Este 0 969.1 -0.7 34
2019-06-01 13:00:00 26.5 7 Este 23 Sudeste 0 969.7 -0.2 35
2019-06-01 12:00:00 24.7 10 Sudeste 24 Sudeste 0 969.8 -0.2 38
2019-06-01 11:00:00 23.4 8 Este 20 Nordeste 0 969.8 -0.3 44
2019-06-01 10:00:00 21.7 8 Este 15 Este 0 969.9 0 49
2019-06-01 09:00:00 18.7 0 Calma 5 Norte 0 970 0.2 66
2019-06-01 08:00:00 15.6 0 Calma 2 Sudoeste 0 970.1 0.4 87
2019-06-01 07:00:00 13.2 0 Calma 3 Sudoeste 0 969.9 0 94
2019-06-01 06:00:00 13.4 0 Calma 0 Calma 0 969.8 -0.5 99
2019-06-01 05:00:00 13.7 0 Calma 0 Calma 0 969.7 -0.8 99
2019-06-01 04:00:00 14.5 0 Calma 0 Calma 0 969.9 -1 98
2019-06-01 03:00:00 14.5 0 Calma 0 Calma 0 970.3 -0.9 96
2019-06-01 02:00:00 15.1 0 Calma 0 Calma 0 970.5 -0.7 95
2019-06-01 01:00:00 15.8 0 Calma 0 Calma 0 970.9 0.2 91
2019-06-01 00:00:00 16.5 0 Calma 0 Calma 0 971.2 0.6 88
2019-05-31 23:00:00 17.7 0 Calma 2 Noroeste 0 971.2 0.5 79
2019-05-31 22:00:00 19.4 0 Calma 6 Noroeste 0 970.7 -0.1 69
2019-05-31 21:00:00 23.2 0 Calma 10 Norte 0 970.6 -0.5 50
2019-05-31 20:00:00 24.8 5 Norte 15 Noroeste 0 970.7 -0.6 45
2019-05-31 19:00:00 26.1 9 Noroeste 19 Norte 0 970.8 -0.7 43
2019-05-31 18:00:00 26.1 11 Noroeste 21 Norte 0 971.1 -1 43
2019-05-31 17:00:00 26.4 5 Nordeste 19 Noroeste 0 971.3 -1.1 41
2019-05-31 16:00:00 26.6 6 Norte 15 Norte 0 971.5 -1.2 40
2019-05-31 15:00:00 25.8 4 Este 14 Nordeste 0 972.1 -0.9 32
2019-05-31 14:00:00 25.4 5 Este 13 Sudeste 0 972.4 -0.9 33
2019-05-31 13:00:00 24.3 3 Este 11 Este 0 972.7 -0.9 37
2019-05-31 12:00:00 22.4 5 Este 11 Este 0 973 -0.6 45
2019-05-31 11:00:00 20.1 2 Este 9 Este 0 973.3 -0.4 58
2019-05-31 10:00:00 16.3 6 Este 12 Este 0 973.6 -0.2 78
2019-05-31 09:00:00 15.3 0 Calma 0 Calma 0 973.6 -0.1 85
2019-05-31 08:00:00 12.3 0 Calma 0 Calma 0 973.7 -0.4 99
2019-05-31 07:00:00 10.1 0 Calma 3 Este 0 973.8 -0.5 99
2019-05-31 06:00:00 10.2 0 Calma 0 Calma 0 973.7 -1.2 99
2019-05-31 05:00:00 10.7 0 Calma 0 Calma 0 974.1 -1.1 99
2019-05-31 04:00:00 11 0 Calma 0 Calma 0 974.3 -1.6 99
2019-05-31 03:00:00 11.2 0 Calma 3 Sudoeste 0 974.9 -1 99
2019-05-31 02:00:00 11.6 0 Calma 2 Sudoeste 0 975.2 -0.5 97
2019-05-31 01:00:00 12.3 0 Calma 0 Calma 0 975.9 0.8 95
2019-05-31 00:00:00 13.1 0 Calma 0 Calma 0 975.9 0.9 93
2019-05-30 23:00:00 14.2 0 Calma 2 Noroeste 0 975.7 1 88
2019-05-30 22:00:00 15.4 0 Calma 5 Nordeste 0 975.1 0.6 80
2019-05-30 21:00:00 18.1 3 Norte 22 Noroeste 0 975 0.5 65
2019-05-30 20:00:00 19.5 12 Noroeste 21 Norte 0 974.7 0.1 55
2019-05-30 19:00:00 21.9 10 Norte 23 Noroeste 0 974.5 -0.3 47
2019-05-30 18:00:00 23.2 8 Norte 17 Norte 0 974.5 -0.6 44
2019-05-30 17:00:00 23.5 7 Norte 16 Noroeste 0 974.6 -1.1 42
2019-05-30 16:00:00 22.8 5 Sudeste 13 Sudeste 0 974.8 -1.2 41
2019-05-30 15:00:00 22.2 3 Sudeste 13 Este 0 975.1 -1.3 43
2019-05-30 14:00:00 21.1 4 Norte 16 Sudeste 0 975.7 -0.9 46
2019-05-30 13:00:00 19.3 3 Nordeste 13 Nordeste 0 976 -0.8 46
2019-05-30 12:00:00 18.1 4 Este 10 Norte 0 976.4 -0.5 49
2019-05-30 11:00:00 16.5 3 Este 10 Este 0 976.6 -0.2 56
2019-05-30 10:00:00 14.3 0 Calma 3 Este 0 976.8 0.5 70
2019-05-30 09:00:00 10.6 0 Calma 3 Este 0 976.9 0.8 87
2019-05-30 08:00:00 7.9 0 Calma 0 Calma 0 976.8 0.9 99
2019-05-30 07:00:00 5.2 0 Calma 2 Sudoeste 0 976.3 0 99
2019-05-30 06:00:00 5.6 0 Calma 0 Calma 0 976.1 -0.5 99
2019-05-30 05:00:00 5.8 0 Calma 0 Calma 0 975.9 -1.1 99
2019-05-30 04:00:00 6.1 0 Calma 0 Calma 0 976.3 -0.8 99
2019-05-30 03:00:00 6.5 0 Calma 3 Sudoeste 0 976.6 -0.6 99
2019-05-30 02:00:00 7.1 0 Calma 6 Sudoeste 0 977 -0.1 99
2019-05-30 01:00:00 7.4 0 Calma 6 Sudoeste 0 977.1 0.3 98
2019-05-30 00:00:00 8.1 0 Calma 0 Calma 0 977.2 0.6 95
2019-05-29 23:00:00 9.3 0 Calma 0 Calma 0 977.1 0.9 89
2019-05-29 22:00:00 10.9 0 Calma 6 Norte 0 976.8 0.8 80
2019-05-29 21:00:00 13 0 Calma 13 Noroeste 0 976.6 0.7 67
2019-05-29 20:00:00 14.1 5 Norte 23 Noroeste 0 976.2 0.2 63
2019-05-29 19:00:00 14.7 6 Norte 23 Noroeste 0 976 0.3 59
2019-05-29 18:00:00 15.7 9 Norte 20 Noroeste 0 975.9 -0.3 57
2019-05-29 17:00:00 15.3 6 Norte 25 Oeste 0 976 -0.3 59
2019-05-29 16:00:00 14.7 10 Oeste 20 Oeste 0 975.7 -0.5 60
2019-05-29 15:00:00 15 6 Norte 19 Noroeste 0 976.2 0.1 60
2019-05-29 14:00:00 13.8 3 Noroeste 22 Noroeste 0 976.3 0.3 63
2019-05-29 13:00:00 13.2 7 Noroeste 21 Oeste 0 976.2 0.4 67
2019-05-29 12:00:00 12.6 8 Noroeste 20 Noroeste 0 976.1 1 73
2019-05-29 11:00:00 10.6 8 Oeste 19 Oeste 0 976 1.7 87
2019-05-29 10:00:00 10.2 6 Oeste 22 Oeste 0 975.8 1.9 88
2019-05-29 09:00:00 9.4 3 Noroeste 23 Norte 0 975.1 1.8 94
2019-05-29 08:00:00 8.7 6 Oeste 18 Oeste 0.1 974.3 1 99
2019-05-29 07:00:00 8.7 4 Oeste 16 Oeste 1.5 973.9 0.3 99
2019-05-29 06:00:00 8.7 9 Oeste 20 Oeste 0.8 973.3 -0.2 99
2019-05-29 05:00:00 8.5 6 Oeste 14 Noroeste 0.1 973.3 -0.4 99
2019-05-29 04:00:00 8.7 9 Oeste 23 Oeste 0.2 973.6 0 99
2019-05-29 03:00:00 8.8 10 Oeste 20 Oeste 0.3 973.5 0.1 97
2019-05-29 02:00:00 9.4 9 Oeste 31 Noroeste 0 973.7 0.5 91
2019-05-29 01:00:00 9 9 Oeste 33 Oeste 0 973.6 0.6 92
2019-05-29 00:00:00 9.4 15 Oeste 35 Oeste 0 973.4 0.8 89
2019-05-28 23:00:00 9.3 9 Oeste 20 Oeste 0 973.2 0.8 88
2019-05-28 22:00:00 9.9 14 Noroeste 40 Oeste 0 973 1.2 81
2019-05-28 21:00:00 10 23 Oeste 39 Oeste 0 972.6 1.1 77
2019-05-28 20:00:00 10.3 18 Oeste 36 Oeste 0.5 972.4 0.9 82
2019-05-28 19:00:00 11.7 17 Oeste 42 Noroeste 0 971.8 0.5 65
2019-05-28 18:00:00 12.1 20 Oeste 37 Oeste 0 971.5 0.6 67
2019-05-28 17:00:00 12.3 9 Oeste 42 Oeste 0.1 971.5 0.8 80
2019-05-28 16:00:00 10 21 Oeste 39 Oeste 0.3 971.3 0.9 84
2019-05-28 15:00:00 9.6 22 Oeste 36 Oeste 1 970.9 0.7 98
2019-05-28 14:00:00 9.9 13 Oeste 27 Oeste 1.5 970.7 0.7 96
2019-05-28 13:00:00 10.5 14 Oeste 29 Oeste 0.1 970.4 0.4 88
2019-05-28 12:00:00 10.8 12 Oeste 26 Oeste 0 970.2 0.8 85
2019-05-28 11:00:00 9.5 11 Oeste 23 Oeste 0.1 970 0.8 98
2019-05-28 10:00:00 9 9 Oeste 25 Noroeste 0.1 970 1 97
2019-05-28 09:00:00 9.2 7 Oeste 15 Oeste 0 969.4 0.8 95
2019-05-28 08:00:00 9.1 8 Oeste 15 Oeste 0 969.2 0.6 95
2019-05-28 07:00:00 8.5 5 Oeste 21 Oeste 0 969 0.2 95
2019-05-28 06:00:00 8.4 5 Oeste 21 Oeste 0 968.6 -0.4 95
2019-05-28 05:00:00 8.5 5 Oeste 15 Oeste 0 968.6 -0.5 92
2019-05-28 04:00:00 8.5 3 Oeste 16 Oeste 0 968.8 -0.4 95
2019-05-28 03:00:00 8.6 4 Oeste 19 Oeste 0 969 -0.3 95
2019-05-28 02:00:00 9.1 9 Oeste 16 Oeste 0 969.1 0 95
2019-05-28 01:00:00 9.8 8 Oeste 22 Noroeste 0 969.2 0.2 85
2019-05-28 00:00:00 9.9 9 Oeste 24 Noroeste 0 969.3 0.9 92